Nîmes-Arles-Camargue Airport

Airport
ICAO code: 
LFTW
IATA Code: 
FNI
Summary
ICAO Region: 
EUR
Territory: 
Location: 
, Languedoc-Roussillon
Serving: 
Nimes
Elevation: 
309 ft
Coordinates: 
Aerial View: 
43° 45' 26.798" N, 4° 24' 58.849" E
Metar
Observation
LFTW 210430Z AUTO 35009KT 320V020 CAVOK 03/M06 Q1022 BECMG 35020G35KT
Station
Nimes / Garons
Date/Time
2022-01-21 04:30:00
Wind direction
350°
Wind speed
09 kts
Lowest cloud amount
clouds and visibility OK
Temperature
3°C
Dew point
-6°C
Humidity
51%
QNH
1022 hPa
Weather condition
n/a

Runways

Designator Length Width Surface Rops
18/36 2440 45 CON Yes/Yes
Airport map: 
Aerial View: 

SKYbrary Partners:

Safety knowledge contributed by: